Terminal Aerodrome Forecast
Issued by NWS

Home | Current Version | Previous Version | Text Only | Print | Product List | Glossary On
Versions: 1 2 3 4 5 6 7 8 9 10 11 12 13
000
FTUS44 KEPZ 252325
TAFLRU
TAF
KLRU 252325Z 2600/2624 26020G25KT P6SM FEW150 SCT250
     FM260300 26015G25KT P6SM SCT250
     FM260700 26010KT P6SM SCT250
     FM261600 25020G27KT P6SM FEW250=

USA.gov is the U.S. government's official web portal to all federal, state and local government web resources and services.